KSPW/SPW METAR and TAF weather

Enter ICAO airport designator
Station Type Date Time Source
KSPW METAR 2021/08/01 15:53 UTC NOAA

KSPW 011553Z AUTO 36012KT 6SM HZ CLR 23/13 A3023 RMK AO2 SLP231 T02280128


Station Type Date Time Source
KSPW Decoded METAR 2021/08/01 15:53 UTC NOAA

SPENCER MUNICIPAL AIRPORT, IA, United States (KSPW) 43-10N 95-13W 403M
Aug 01, 2021 - 11:53 AM EDT / 2021.08.01 1553 UTC
Wind: from the N (360 degrees) at 14 MPH (12 KT):0
Visibility: 6 mile(s):0
Sky conditions: clear
Weather: haze
Temperature: 73.0 F (22.8 C)
Dew Point: 55.0 F (12.8 C)
Relative Humidity: 53%
Pressure (altimeter): 30.23 in. Hg (1023 hPa)
ob: KSPW 011553Z AUTO 36012KT 6SM HZ CLR 23/13 A3023 RMK AO2 SLP231 T02280128
cycle: 16

Station Type Date Time Source
KSPW TAF UTC NOAA

Error!

Example: see airport list